createdAt,value
2023-04-05T00:09:54.886Z,101195.31
2023-04-05T00:19:58.142Z,101167.97
2023-04-05T00:30:00.219Z,101153.13
2023-04-05T00:40:02.108Z,101139.22
2023-04-05T00:50:04.432Z,101148.88
2023-04-05T01:00:09.845Z,101157.09
2023-04-05T01:10:18.057Z,101137.25
2023-04-05T01:20:20.895Z,101128.69
2023-04-05T01:30:28.529Z,101137.13
2023-04-05T01:40:31.762Z,101135.63
2023-04-05T01:50:33.678Z,101137.41
2023-04-05T02:00:35.641Z,101136.59
2023-04-05T02:10:39.841Z,101145.13
2023-04-05T02:20:50.713Z,101139.03
2023-04-05T02:30:52.843Z,101151.47
2023-04-05T02:40:55.572Z,101139.47
2023-04-05T02:50:57.570Z,101134.81
2023-04-05T03:01:07.581Z,101142.94
2023-04-05T03:11:10.634Z,101142.38
2023-04-05T03:21:12.644Z,101140.56
2023-04-05T03:31:14.697Z,101153.81
2023-04-05T03:41:16.670Z,101148.19
2023-04-05T03:51:19.256Z,101144.97
2023-04-05T04:01:21.662Z,101144.94
2023-04-05T04:11:23.635Z,101153.31
2023-04-05T04:21:27.567Z,101152.53
2023-04-05T04:31:29.523Z,101153.38
2023-04-05T04:41:38.560Z,101159.69
2023-04-05T04:51:40.807Z,101149.38
2023-04-05T05:01:45.818Z,101156.78
2023-04-05T05:11:47.798Z,101164.25
2023-04-05T05:22:15.737Z,101161.47
2023-04-05T05:32:17.867Z,101173.19
2023-04-05T05:42:27.558Z,101171.47
2023-04-05T05:52:31.961Z,101178.25
2023-04-05T06:02:47.076Z,101182.81
2023-04-05T06:12:49.250Z,101194.31
2023-04-05T06:22:55.227Z,101188.94
2023-04-05T06:32:57.665Z,101182.56
2023-04-05T06:43:02.044Z,101205.56
2023-04-05T06:53:04.958Z,101199.31
2023-04-05T07:03:07.017Z,101195.53
2023-04-05T07:13:34.002Z,101200.47
2023-04-05T07:23:43.913Z,101185.81
2023-04-05T07:33:45.963Z,101204.91
2023-04-05T07:43:48.006Z,101209.69
2023-04-05T07:53:50.019Z,101211.19
2023-04-05T08:03:52.008Z,101206.22
2023-04-05T08:14:00.302Z,101202.44
2023-04-05T08:24:05.129Z,101212.19
2023-04-05T08:34:11.414Z,101213.00
2023-04-05T08:44:31.509Z,101205.34
2023-04-05T08:54:34.570Z,101205.09
2023-04-05T09:04:40.796Z,101191.97
2023-04-05T09:14:44.598Z,101203.47
2023-04-05T09:24:51.384Z,101198.41
2023-04-05T09:35:04.835Z,101205.69
2023-04-05T09:45:15.326Z,101203.03
2023-04-05T09:55:49.757Z,101195.09
2023-04-05T10:05:58.953Z,101196.31
2023-04-05T10:16:10.549Z,101194.63
2023-04-05T10:26:29.405Z,101180.63
2023-04-05T10:37:04.061Z,101192.91
2023-04-05T10:47:10.816Z,101184.94
2023-04-05T10:57:13.816Z,101187.56
2023-04-05T11:07:18.167Z,101185.88
2023-04-05T11:17:28.382Z,101176.84
2023-04-05T11:27:37.872Z,101175.06
2023-04-05T11:38:02.611Z,101176.53
2023-04-05T11:48:10.230Z,101177.34
2023-04-05T11:58:22.691Z,101172.22
2023-04-05T12:08:48.656Z,101162.44
2023-04-05T12:18:55.246Z,101153.94
2023-04-05T12:29:04.650Z,101156.38
2023-04-05T12:39:08.143Z,101139.19
2023-04-05T12:49:16.284Z,101132.25
2023-04-05T12:59:24.997Z,101138.69
2023-04-05T13:09:27.562Z,101145.28
2023-04-05T13:19:31.575Z,101147.66
2023-04-05T13:29:34.561Z,101141.28
2023-04-05T13:39:44.382Z,101140.22
2023-04-05T13:49:50.804Z,101140.53
2023-04-05T14:00:01.052Z,101140.53
2023-04-05T14:10:06.410Z,101144.75
2023-04-05T14:20:17.646Z,101132.38
2023-04-05T14:30:26.540Z,101132.50
2023-04-05T14:40:28.675Z,101137.47
2023-04-05T14:50:36.085Z,101144.06
2023-04-05T15:00:38.234Z,101146.81
2023-04-05T15:10:43.152Z,101150.38
2023-04-05T15:20:46.477Z,101156.09
2023-04-05T15:30:51.476Z,101163.66
2023-04-05T15:40:54.603Z,101173.16
2023-04-05T15:51:08.619Z,101179.78
2023-04-05T16:01:14.255Z,101187.56
2023-04-05T16:11:18.421Z,101183.41
2023-04-05T16:21:31.306Z,101186.03
2023-04-05T16:31:36.019Z,101173.88
2023-04-05T16:41:40.229Z,101177.97
2023-04-05T16:51:44.340Z,101177.03
2023-04-05T17:01:47.352Z,101185.34
2023-04-05T17:11:51.722Z,101183.50
2023-04-05T17:22:00.602Z,101194.09
2023-04-05T17:32:16.989Z,101205.00
2023-04-05T17:42:25.152Z,101205.69
2023-04-05T17:52:31.643Z,101217.47
2023-04-05T18:02:37.726Z,101228.41
2023-04-05T18:12:56.644Z,101239.94
2023-04-05T18:23:00.922Z,101248.44
2023-04-05T18:33:10.714Z,101250.00
2023-04-05T18:43:15.077Z,101259.31
2023-04-05T18:53:17.171Z,101264.47
2023-04-05T19:03:27.543Z,101265.97
2023-04-05T19:13:31.286Z,101278.47
2023-04-05T19:23:37.277Z,101284.59
2023-04-05T19:33:39.463Z,101280.22
2023-04-05T19:43:41.986Z,101280.22
2023-04-05T19:53:48.431Z,101285.09
2023-04-05T20:04:02.497Z,101275.59
2023-04-05T20:14:11.311Z,101274.66
2023-04-05T20:24:16.837Z,101259.59
2023-04-05T20:34:31.279Z,101261.03
2023-04-05T20:44:33.349Z,101252.47
2023-04-05T20:54:36.287Z,101248.09
2023-04-05T21:04:38.451Z,101243.84
2023-04-05T21:14:40.456Z,101246.13
2023-04-05T21:24:45.518Z,101250.78
2023-04-05T21:34:47.496Z,101247.75
2023-04-05T21:44:51.926Z,101242.59
2023-04-05T21:54:53.860Z,101249.34
2023-04-05T22:04:55.892Z,101230.44
2023-04-05T22:14:57.934Z,101226.81
2023-04-05T22:25:02.904Z,101227.72
2023-04-05T22:35:11.398Z,101221.63
2023-04-05T22:45:16.632Z,101223.25
2023-04-05T22:55:19.750Z,101214.75
2023-04-05T23:05:21.685Z,101202.50
2023-04-05T23:15:29.543Z,101206.22
2023-04-05T23:25:32.445Z,101196.03
2023-04-05T23:35:34.384Z,101198.56
2023-04-05T23:45:36.538Z,101193.41
2023-04-05T23:55:42.101Z,101184.06
